createdAt,value
2016-11-02T00:00:42.934Z,7.53
2016-11-02T00:01:43.546Z,7.57
2016-11-02T00:02:44.149Z,7.54
2016-11-02T00:03:44.754Z,7.45
2016-11-02T00:04:45.356Z,7.48
2016-11-02T00:05:45.986Z,7.56
2016-11-02T00:06:46.595Z,7.58
2016-11-02T00:07:47.203Z,7.45
2016-11-02T00:08:47.814Z,7.48
2016-11-02T00:09:48.439Z,7.48
2016-11-02T00:10:49.034Z,7.45
2016-11-02T00:11:49.638Z,7.47
2016-11-02T00:12:50.243Z,7.47
2016-11-02T00:13:50.865Z,7.54
2016-11-02T00:14:51.508Z,7.58
2016-11-02T00:15:52.114Z,7.51
2016-11-02T00:16:52.726Z,7.45
2016-11-02T00:17:53.343Z,7.58
2016-11-02T00:18:53.954Z,7.51
2016-11-02T00:19:54.566Z,7.47
2016-11-02T00:20:55.178Z,7.58
2016-11-02T00:21:55.793Z,7.51
2016-11-02T00:22:56.409Z,7.45
2016-11-02T00:23:57.022Z,7.51
2016-11-02T00:24:57.642Z,7.43
2016-11-02T00:25:58.258Z,7.45
2016-11-02T00:26:58.868Z,7.45
2016-11-02T00:27:59.491Z,7.42
2016-11-02T00:29:00.096Z,7.47
2016-11-02T00:30:00.726Z,7.56
2016-11-02T00:31:01.339Z,7.51
2016-11-02T00:32:01.942Z,7.57
2016-11-02T00:33:02.549Z,7.57
2016-11-02T00:34:03.160Z,7.58
2016-11-02T00:35:03.766Z,7.63
2016-11-02T00:36:04.373Z,7.56
2016-11-02T00:37:04.982Z,7.42
2016-11-02T00:38:05.591Z,7.43
2016-11-02T00:39:06.277Z,7.5
2016-11-02T00:40:06.882Z,7.48
2016-11-02T00:41:07.483Z,7.47
2016-11-02T00:42:08.093Z,7.48
2016-11-02T00:43:08.699Z,7.48
2016-11-02T00:44:09.304Z,7.48
2016-11-02T00:45:09.912Z,7.47
2016-11-02T00:46:10.525Z,7.54
2016-11-02T00:47:11.130Z,7.5
2016-11-02T00:48:11.735Z,7.43
2016-11-02T00:49:12.346Z,7.43
2016-11-02T00:50:12.951Z,7.45
2016-11-02T00:51:13.558Z,7.45
2016-11-02T00:52:14.167Z,7.45
2016-11-02T00:53:14.774Z,7.48
2016-11-02T00:54:15.382Z,7.45
2016-11-02T00:55:15.980Z,7.47
2016-11-02T00:56:16.588Z,7.47
2016-11-02T00:57:17.192Z,7.54
2016-11-02T00:58:17.796Z,7.45
2016-11-02T00:59:18.403Z,7.42
2016-11-02T01:00:19.017Z,7.51
2016-11-02T01:01:19.636Z,7.45
2016-11-02T01:02:20.254Z,7.5
2016-11-02T01:03:20.858Z,7.47
2016-11-02T01:04:21.466Z,7.47
2016-11-02T01:05:22.082Z,7.47
2016-11-02T01:06:22.686Z,7.47
2016-11-02T01:07:23.299Z,7.5
2016-11-02T01:08:23.910Z,7.47
2016-11-02T01:09:24.526Z,7.48
2016-11-02T01:10:25.142Z,7.5
2016-11-02T01:11:25.745Z,7.43
2016-11-02T01:12:26.360Z,7.43
2016-11-02T01:13:26.972Z,7.42
2016-11-02T01:14:27.583Z,7.45
2016-11-02T01:15:28.192Z,7.43
2016-11-02T01:16:28.800Z,7.4
2016-11-02T01:17:29.396Z,7.5
2016-11-02T01:18:30.000Z,7.38
2016-11-02T01:19:30.613Z,7.42
2016-11-02T01:20:31.219Z,7.42
2016-11-02T01:21:31.827Z,7.39
2016-11-02T01:22:32.452Z,7.4
2016-11-02T01:23:33.073Z,7.4
2016-11-02T01:24:33.695Z,7.42
2016-11-02T01:25:34.299Z,7.38
2016-11-02T01:26:34.912Z,7.39
2016-11-02T01:27:35.528Z,7.4
2016-11-02T01:28:36.133Z,7.31
2016-11-02T01:29:36.751Z,7.39
2016-11-02T01:30:37.382Z,7.39
2016-11-02T01:31:37.991Z,7.36
2016-11-02T01:32:38.586Z,7.38
2016-11-02T01:33:39.190Z,7.39
2016-11-02T01:34:39.794Z,7.39
2016-11-02T01:35:40.397Z,7.4
2016-11-02T01:36:41.009Z,7.42
2016-11-02T01:37:41.609Z,7.4
2016-11-02T01:38:42.220Z,7.47
2016-11-02T01:39:42.833Z,7.43
2016-11-02T01:40:43.441Z,7.38
2016-11-02T01:41:44.042Z,7.36
2016-11-02T01:42:44.655Z,7.4
2016-11-02T01:43:45.258Z,7.39
2016-11-02T01:44:45.866Z,7.43
2016-11-02T01:45:46.470Z,7.43
2016-11-02T01:46:47.078Z,7.43
2016-11-02T01:47:47.682Z,7.39
2016-11-02T01:48:48.293Z,7.43
2016-11-02T01:49:48.898Z,7.47
2016-11-02T01:50:49.498Z,7.5
2016-11-02T01:51:50.113Z,7.5
2016-11-02T01:52:50.722Z,7.5
2016-11-02T01:53:51.327Z,7.43
2016-11-02T01:54:51.936Z,7.5
2016-11-02T01:55:52.545Z,7.56
2016-11-02T01:56:53.152Z,7.56
2016-11-02T01:57:53.753Z,7.63
2016-11-02T01:58:54.358Z,7.66
2016-11-02T01:59:54.975Z,7.66
2016-11-02T02:00:55.586Z,7.58
2016-11-02T02:01:56.197Z,7.63
2016-11-02T02:02:56.812Z,7.69
2016-11-02T02:03:57.424Z,7.56
2016-11-02T02:04:58.045Z,7.7
2016-11-02T02:05:58.645Z,7.69
2016-11-02T02:07:01.888Z,7.72
2016-11-02T02:08:02.503Z,7.73
2016-11-02T02:09:03.111Z,7.53
2016-11-02T02:10:03.726Z,7.63
2016-11-02T02:11:04.334Z,7.63
2016-11-02T02:12:04.951Z,7.67
2016-11-02T02:13:05.569Z,7.67
2016-11-02T02:14:06.174Z,7.63
2016-11-02T02:15:06.781Z,7.67
2016-11-02T02:16:07.390Z,7.77
2016-11-02T02:17:07.990Z,7.7
2016-11-02T02:18:08.594Z,7.73
2016-11-02T02:19:09.200Z,7.87
2016-11-02T02:20:09.812Z,7.75
2016-11-02T02:21:10.422Z,7.75
2016-11-02T02:22:11.027Z,7.76
2016-11-02T02:23:11.648Z,7.73
2016-11-02T02:24:12.270Z,7.77
2016-11-02T02:25:12.879Z,7.7
2016-11-02T02:26:13.490Z,7.76
2016-11-02T02:27:14.095Z,7.75
2016-11-02T02:28:14.702Z,7.75
2016-11-02T02:29:15.315Z,7.75
2016-11-02T02:30:15.920Z,7.77
2016-11-02T02:31:16.541Z,7.79
2016-11-02T02:32:17.178Z,7.76
2016-11-02T02:33:17.784Z,7.77
2016-11-02T02:34:18.407Z,7.73
2016-11-02T02:35:19.024Z,7.7
2016-11-02T02:36:19.641Z,7.66
2016-11-02T02:37:20.249Z,7.69
2016-11-02T02:38:20.858Z,7.69
2016-11-02T02:39:21.473Z,7.69
2016-11-02T02:40:22.094Z,7.57
2016-11-02T02:41:22.713Z,7.6
2016-11-02T02:42:23.315Z,7.6
2016-11-02T02:43:23.921Z,7.66
2016-11-02T02:44:24.528Z,7.58
2016-11-02T02:45:25.143Z,7.63
2016-11-02T02:46:25.749Z,7.61
2016-11-02T02:47:26.372Z,7.67
2016-11-02T02:48:26.998Z,7.66
2016-11-02T02:49:27.606Z,7.66
2016-11-02T02:50:28.215Z,7.63
2016-11-02T02:51:28.827Z,7.6
2016-11-02T02:52:29.436Z,7.67
2016-11-02T02:53:30.059Z,7.61
2016-11-02T02:54:30.676Z,7.77
2016-11-02T02:55:31.286Z,7.67
2016-11-02T02:56:31.904Z,7.8
2016-11-02T02:57:32.512Z,7.77
2016-11-02T02:58:33.121Z,7.7
2016-11-02T02:59:33.732Z,7.77
2016-11-02T03:00:34.345Z,7.77
2016-11-02T03:01:34.953Z,7.79
2016-11-02T03:02:35.566Z,7.72
2016-11-02T03:03:36.176Z,7.73
2016-11-02T03:04:36.780Z,7.76
2016-11-02T03:05:37.388Z,7.69
2016-11-02T03:06:37.997Z,7.72
2016-11-02T03:07:38.604Z,7.73
2016-11-02T03:08:39.213Z,7.8
2016-11-02T03:09:39.818Z,7.76
2016-11-02T03:10:40.420Z,7.76
2016-11-02T03:11:41.029Z,7.67
2016-11-02T03:12:41.634Z,7.7
2016-11-02T03:13:42.240Z,7.7
2016-11-02T03:14:42.840Z,7.69
2016-11-02T03:15:43.450Z,7.66
2016-11-02T03:16:44.065Z,7.61
2016-11-02T03:17:44.669Z,7.63
2016-11-02T03:18:45.285Z,7.67
2016-11-02T03:19:45.894Z,7.61
2016-11-02T03:20:46.498Z,7.61
2016-11-02T03:21:47.107Z,7.66
2016-11-02T03:22:47.720Z,7.66
2016-11-02T03:23:48.327Z,7.7
2016-11-02T03:24:48.934Z,7.61
2016-11-02T03:25:49.540Z,7.73
2016-11-02T03:26:50.143Z,7.83
2016-11-02T03:27:50.750Z,7.69
2016-11-02T03:28:51.352Z,7.8
2016-11-02T03:29:51.960Z,7.73
2016-11-02T03:30:52.566Z,7.79
2016-11-02T03:31:53.167Z,7.79
2016-11-02T03:32:53.780Z,7.75
2016-11-02T03:33:54.393Z,7.77
2016-11-02T03:34:55.001Z,7.8
2016-11-02T03:35:55.609Z,7.72
2016-11-02T03:36:56.216Z,7.82
2016-11-02T03:37:56.816Z,7.79
2016-11-02T03:38:57.420Z,7.77
2016-11-02T03:39:58.039Z,7.63
2016-11-02T03:40:58.654Z,7.79
2016-11-02T03:41:59.259Z,7.63
2016-11-02T03:42:59.865Z,7.77
2016-11-02T03:44:00.472Z,7.75
2016-11-02T03:45:01.080Z,7.77
2016-11-02T03:46:01.698Z,7.66
2016-11-02T03:47:02.301Z,7.75
2016-11-02T03:48:02.911Z,7.6
2016-11-02T03:49:03.517Z,7.63
2016-11-02T03:50:04.122Z,7.77
2016-11-02T03:51:04.728Z,7.58
2016-11-02T03:52:05.336Z,7.63
2016-11-02T03:53:05.943Z,7.61
2016-11-02T03:54:06.552Z,7.69
2016-11-02T03:55:07.159Z,7.61
2016-11-02T03:56:07.766Z,7.75
2016-11-02T03:57:08.374Z,7.76
2016-11-02T03:58:08.977Z,7.77
2016-11-02T03:59:09.591Z,7.75
2016-11-02T04:00:10.214Z,7.75
2016-11-02T04:01:10.830Z,7.6
2016-11-02T04:02:11.449Z,7.77
2016-11-02T04:03:12.049Z,7.67
2016-11-02T04:04:12.655Z,7.75
2016-11-02T04:05:13.271Z,7.69
2016-11-02T04:06:13.873Z,7.61
2016-11-02T04:07:14.488Z,7.69
2016-11-02T04:08:15.089Z,7.6
2016-11-02T04:09:15.702Z,7.67
2016-11-02T04:10:16.312Z,7.61
2016-11-02T04:11:16.920Z,7.61
2016-11-02T04:12:17.529Z,7.66
2016-11-02T04:13:18.150Z,7.66
2016-11-02T04:14:18.765Z,7.66
2016-11-02T04:15:19.364Z,7.66
2016-11-02T04:16:19.969Z,7.67
2016-11-02T04:17:20.586Z,7.6
2016-11-02T04:18:21.217Z,7.58
2016-11-02T04:19:21.832Z,7.61
2016-11-02T04:20:22.437Z,7.67
2016-11-02T04:21:23.042Z,7.69
2016-11-02T04:22:23.650Z,7.61
2016-11-02T04:23:24.249Z,7.61
2016-11-02T04:24:24.857Z,7.7
2016-11-02T04:25:25.459Z,7.61
2016-11-02T04:26:26.071Z,7.75
2016-11-02T04:27:26.679Z,7.75
2016-11-02T04:28:27.289Z,7.75
2016-11-02T04:29:27.892Z,7.77
2016-11-02T04:30:28.512Z,7.7
2016-11-02T04:31:29.117Z,7.67
2016-11-02T04:32:29.713Z,7.63
2016-11-02T04:33:30.328Z,7.69
2016-11-02T04:34:30.934Z,7.7
2016-11-02T04:35:31.543Z,7.61
